sensor_id;sensor_type;location;lat;lon;timestamp;P1;durP1;ratioP1;P2;durP2;ratioP2
13483;SDS011;6814;57.786;12.080;2023-09-19T00:00:04;54.87;;;33.57;;
13483;SDS011;6814;57.786;12.080;2023-09-19T00:02:31;54.63;;;34.03;;
13483;SDS011;6814;57.786;12.080;2023-09-19T00:05:00;50.47;;;33.10;;
13483;SDS011;6814;57.786;12.080;2023-09-19T00:07:29;49.07;;;33.70;;
13483;SDS011;6814;57.786;12.080;2023-09-19T00:09:56;45.73;;;33.07;;
13483;SDS011;6814;57.786;12.080;2023-09-19T00:12:22;51.33;;;34.20;;
13483;SDS011;6814;57.786;12.080;2023-09-19T00:14:49;51.23;;;33.37;;
13483;SDS011;6814;57.786;12.080;2023-09-19T00:17:16;49.07;;;32.60;;
13483;SDS011;6814;57.786;12.080;2023-09-19T00:19:42;47.50;;;33.00;;
13483;SDS011;6814;57.786;12.080;2023-09-19T00:22:13;43.23;;;32.53;;
13483;SDS011;6814;57.786;12.080;2023-09-19T00:24:41;46.13;;;32.47;;
13483;SDS011;6814;57.786;12.080;2023-09-19T00:27:07;41.70;;;31.13;;
13483;SDS011;6814;57.786;12.080;2023-09-19T00:29:34;50.90;;;34.33;;
13483;SDS011;6814;57.786;12.080;2023-09-19T00:32:01;48.43;;;32.93;;
13483;SDS011;6814;57.786;12.080;2023-09-19T00:34:28;44.30;;;32.10;;
13483;SDS011;6814;57.786;12.080;2023-09-19T00:36:59;44.50;;;32.23;;
13483;SDS011;6814;57.786;12.080;2023-09-19T00:39:27;42.57;;;33.13;;
13483;SDS011;6814;57.786;12.080;2023-09-19T00:41:56;43.57;;;31.77;;
13483;SDS011;6814;57.786;12.080;2023-09-19T00:44:22;41.40;;;31.20;;
13483;SDS011;6814;57.786;12.080;2023-09-19T00:46:49;39.83;;;30.83;;
13483;SDS011;6814;57.786;12.080;2023-09-19T00:49:16;37.17;;;30.30;;
13483;SDS011;6814;57.786;12.080;2023-09-19T00:51:45;37.60;;;29.90;;
13483;SDS011;6814;57.786;12.080;2023-09-19T00:54:12;40.87;;;29.83;;
13483;SDS011;6814;57.786;12.080;2023-09-19T00:56:44;38.10;;;28.60;;
13483;SDS011;6814;57.786;12.080;2023-09-19T00:59:12;34.60;;;28.60;;
13483;SDS011;6814;57.786;12.080;2023-09-19T01:01:38;35.97;;;28.37;;
13483;SDS011;6814;57.786;12.080;2023-09-19T01:04:05;32.90;;;27.00;;
13483;SDS011;6814;57.786;12.080;2023-09-19T01:06:32;33.17;;;27.33;;
13483;SDS011;6814;57.786;12.080;2023-09-19T01:08:59;33.47;;;27.17;;
13483;SDS011;6814;57.786;12.080;2023-09-19T01:11:28;32.73;;;26.73;;
13483;SDS011;6814;57.786;12.080;2023-09-19T01:13:56;31.57;;;26.13;;
13483;SDS011;6814;57.786;12.080;2023-09-19T01:16:28;30.67;;;25.80;;
13483;SDS011;6814;57.786;12.080;2023-09-19T01:19:00;29.33;;;26.17;;
13483;SDS011;6814;57.786;12.080;2023-09-19T01:21:29;34.50;;;26.50;;
13483;SDS011;6814;57.786;12.080;2023-09-19T01:27:06;29.77;;;23.90;;
13483;SDS011;6814;57.786;12.080;2023-09-19T01:29:37;29.63;;;24.30;;
13483;SDS011;6814;57.786;12.080;2023-09-19T01:32:06;29.77;;;23.80;;
13483;SDS011;6814;57.786;12.080;2023-09-19T01:34:44;30.00;;;23.50;;
13483;SDS011;6814;57.786;12.080;2023-09-19T01:37:12;33.20;;;24.47;;
13483;SDS011;6814;57.786;12.080;2023-09-19T01:39:39;35.73;;;25.80;;
13483;SDS011;6814;57.786;12.080;2023-09-19T01:42:06;29.63;;;24.10;;
13483;SDS011;6814;57.786;12.080;2023-09-19T01:44:36;26.97;;;22.97;;
13483;SDS011;6814;57.786;12.080;2023-09-19T01:47:08;31.93;;;24.87;;
13483;SDS011;6814;57.786;12.080;2023-09-19T01:49:41;30.37;;;23.17;;
13483;SDS011;6814;57.786;12.080;2023-09-19T01:52:11;27.53;;;23.00;;
13483;SDS011;6814;57.786;12.080;2023-09-19T01:54:41;35.23;;;23.80;;
13483;SDS011;6814;57.786;12.080;2023-09-19T01:57:19;32.97;;;25.67;;
13483;SDS011;6814;57.786;12.080;2023-09-19T01:59:48;33.33;;;24.70;;
13483;SDS011;6814;57.786;12.080;2023-09-19T02:02:17;30.53;;;24.70;;
13483;SDS011;6814;57.786;12.080;2023-09-19T02:04:44;33.60;;;26.03;;
13483;SDS011;6814;57.786;12.080;2023-09-19T02:07:10;31.70;;;25.30;;
13483;SDS011;6814;57.786;12.080;2023-09-19T02:09:37;27.47;;;24.53;;
13483;SDS011;6814;57.786;12.080;2023-09-19T02:12:04;28.20;;;24.63;;
13483;SDS011;6814;57.786;12.080;2023-09-19T02:14:31;33.90;;;25.40;;
13483;SDS011;6814;57.786;12.080;2023-09-19T02:16:57;31.60;;;25.47;;
13483;SDS011;6814;57.786;12.080;2023-09-19T02:19:26;28.50;;;24.47;;
13483;SDS011;6814;57.786;12.080;2023-09-19T02:21:52;30.33;;;24.53;;
13483;SDS011;6814;57.786;12.080;2023-09-19T02:24:19;32.60;;;25.40;;
13483;SDS011;6814;57.786;12.080;2023-09-19T02:26:45;29.07;;;25.43;;
13483;SDS011;6814;57.786;12.080;2023-09-19T02:29:12;28.00;;;24.97;;
13483;SDS011;6814;57.786;12.080;2023-09-19T02:31:39;32.30;;;25.23;;
13483;SDS011;6814;57.786;12.080;2023-09-19T02:34:05;33.17;;;25.80;;
13483;SDS011;6814;57.786;12.080;2023-09-19T02:36:33;31.30;;;25.80;;
13483;SDS011;6814;57.786;12.080;2023-09-19T02:39:00;29.47;;;25.67;;
13483;SDS011;6814;57.786;12.080;2023-09-19T02:41:26;32.87;;;26.87;;
13483;SDS011;6814;57.786;12.080;2023-09-19T02:43:54;33.57;;;27.73;;
13483;SDS011;6814;57.786;12.080;2023-09-19T02:46:21;36.47;;;27.17;;
13483;SDS011;6814;57.786;12.080;2023-09-19T02:48:47;30.60;;;25.40;;
13483;SDS011;6814;57.786;12.080;2023-09-19T02:51:14;26.33;;;23.70;;
13483;SDS011;6814;57.786;12.080;2023-09-19T02:53:42;22.57;;;19.43;;
13483;SDS011;6814;57.786;12.080;2023-09-19T02:56:08;22.67;;;20.23;;
13483;SDS011;6814;57.786;12.080;2023-09-19T02:58:37;21.13;;;18.90;;
13483;SDS011;6814;57.786;12.080;2023-09-19T03:01:09;22.47;;;18.13;;
13483;SDS011;6814;57.786;12.080;2023-09-19T03:03:36;20.47;;;16.43;;
13483;SDS011;6814;57.786;12.080;2023-09-19T03:06:04;17.27;;;14.83;;
13483;SDS011;6814;57.786;12.080;2023-09-19T03:08:31;15.97;;;12.87;;
13483;SDS011;6814;57.786;12.080;2023-09-19T03:11:04;14.40;;;12.90;;
13483;SDS011;6814;57.786;12.080;2023-09-19T03:13:32;14.90;;;11.67;;
13483;SDS011;6814;57.786;12.080;2023-09-19T03:16:01;12.20;;;9.90;;
13483;SDS011;6814;57.786;12.080;2023-09-19T03:18:30;11.13;;;9.57;;
13483;SDS011;6814;57.786;12.080;2023-09-19T03:20:57;12.57;;;8.60;;
13483;SDS011;6814;57.786;12.080;2023-09-19T03:23:25;13.07;;;8.30;;
13483;SDS011;6814;57.786;12.080;2023-09-19T03:25:52;8.93;;;7.73;;
13483;SDS011;6814;57.786;12.080;2023-09-19T03:28:20;8.87;;;7.37;;
13483;SDS011;6814;57.786;12.080;2023-09-19T03:30:55;10.20;;;7.60;;
13483;SDS011;6814;57.786;12.080;2023-09-19T03:33:23;9.80;;;6.83;;
13483;SDS011;6814;57.786;12.080;2023-09-19T03:35:51;10.13;;;7.67;;
13483;SDS011;6814;57.786;12.080;2023-09-19T03:38:18;8.87;;;5.87;;
13483;SDS011;6814;57.786;12.080;2023-09-19T03:40:44;10.93;;;6.17;;
13483;SDS011;6814;57.786;12.080;2023-09-19T03:43:11;10.70;;;6.30;;
13483;SDS011;6814;57.786;12.080;2023-09-19T03:45:38;11.20;;;5.97;;
13483;SDS011;6814;57.786;12.080;2023-09-19T03:48:07;9.47;;;5.50;;
13483;SDS011;6814;57.786;12.080;2023-09-19T03:50:34;10.40;;;6.07;;
13483;SDS011;6814;57.786;12.080;2023-09-19T03:53:00;8.77;;;5.50;;
13483;SDS011;6814;57.786;12.080;2023-09-19T03:55:27;15.47;;;5.70;;
13483;SDS011;6814;57.786;12.080;2023-09-19T03:57:55;9.30;;;5.73;;
13483;SDS011;6814;57.786;12.080;2023-09-19T04:00:21;11.50;;;5.67;;
13483;SDS011;6814;57.786;12.080;2023-09-19T04:02:51;11.53;;;4.90;;
13483;SDS011;6814;57.786;12.080;2023-09-19T04:05:23;12.33;;;5.00;;
13483;SDS011;6814;57.786;12.080;2023-09-19T04:07:50;10.17;;;4.77;;
13483;SDS011;6814;57.786;12.080;2023-09-19T04:10:16;10.50;;;4.83;;
13483;SDS011;6814;57.786;12.080;2023-09-19T04:12:50;14.00;;;4.57;;
13483;SDS011;6814;57.786;12.080;2023-09-19T04:15:16;10.00;;;4.30;;
13483;SDS011;6814;57.786;12.080;2023-09-19T04:17:43;11.23;;;4.40;;
13483;SDS011;6814;57.786;12.080;2023-09-19T04:20:11;10.53;;;4.17;;
13483;SDS011;6814;57.786;12.080;2023-09-19T04:22:39;11.53;;;4.77;;
13483;SDS011;6814;57.786;12.080;2023-09-19T04:25:06;9.13;;;3.80;;
13483;SDS011;6814;57.786;12.080;2023-09-19T04:27:33;9.57;;;4.27;;
13483;SDS011;6814;57.786;12.080;2023-09-19T04:29:59;8.83;;;4.03;;
13483;SDS011;6814;57.786;12.080;2023-09-19T04:32:30;11.27;;;3.80;;
13483;SDS011;6814;57.786;12.080;2023-09-19T04:34:57;9.10;;;3.70;;
13483;SDS011;6814;57.786;12.080;2023-09-19T04:37:29;9.63;;;4.50;;
13483;SDS011;6814;57.786;12.080;2023-09-19T04:39:55;11.20;;;4.40;;
13483;SDS011;6814;57.786;12.080;2023-09-19T04:42:21;15.67;;;4.90;;
13483;SDS011;6814;57.786;12.080;2023-09-19T04:44:49;13.60;;;4.70;;
13483;SDS011;6814;57.786;12.080;2023-09-19T04:47:18;13.97;;;4.53;;
13483;SDS011;6814;57.786;12.080;2023-09-19T04:49:46;10.93;;;4.40;;
13483;SDS011;6814;57.786;12.080;2023-09-19T04:52:13;6.60;;;3.80;;
13483;SDS011;6814;57.786;12.080;2023-09-19T04:54:46;12.23;;;4.33;;
13483;SDS011;6814;57.786;12.080;2023-09-19T04:57:13;8.03;;;3.90;;
13483;SDS011;6814;57.786;12.080;2023-09-19T04:59:41;8.73;;;2.97;;
13483;SDS011;6814;57.786;12.080;2023-09-19T05:02:07;8.70;;;2.80;;
13483;SDS011;6814;57.786;12.080;2023-09-19T05:04:34;11.33;;;2.77;;
13483;SDS011;6814;57.786;12.080;2023-09-19T05:07:01;9.07;;;3.10;;
13483;SDS011;6814;57.786;12.080;2023-09-19T05:09:28;4.77;;;1.97;;
13483;SDS011;6814;57.786;12.080;2023-09-19T05:11:56;4.97;;;2.30;;
13483;SDS011;6814;57.786;12.080;2023-09-19T05:14:23;5.47;;;1.73;;
13483;SDS011;6814;57.786;12.080;2023-09-19T05:16:49;5.33;;;1.80;;
13483;SDS011;6814;57.786;12.080;2023-09-19T05:19:16;6.17;;;1.87;;
13483;SDS011;6814;57.786;12.080;2023-09-19T05:21:42;4.77;;;1.80;;
13483;SDS011;6814;57.786;12.080;2023-09-19T05:24:09;8.87;;;1.80;;
13483;SDS011;6814;57.786;12.080;2023-09-19T05:26:37;4.73;;;1.53;;
13483;SDS011;6814;57.786;12.080;2023-09-19T05:29:06;5.13;;;1.23;;
13483;SDS011;6814;57.786;12.080;2023-09-19T05:31:33;7.40;;;1.90;;
13483;SDS011;6814;57.786;12.080;2023-09-19T05:34:01;5.17;;;1.57;;
13483;SDS011;6814;57.786;12.080;2023-09-19T05:36:28;4.83;;;1.60;;
13483;SDS011;6814;57.786;12.080;2023-09-19T05:38:56;5.07;;;1.47;;
13483;SDS011;6814;57.786;12.080;2023-09-19T05:41:22;5.13;;;1.50;;
13483;SDS011;6814;57.786;12.080;2023-09-19T05:43:48;3.27;;;1.50;;
13483;SDS011;6814;57.786;12.080;2023-09-19T05:46:16;8.57;;;1.77;;
13483;SDS011;6814;57.786;12.080;2023-09-19T05:48:43;6.03;;;1.73;;
13483;SDS011;6814;57.786;12.080;2023-09-19T05:51:12;5.23;;;1.63;;
13483;SDS011;6814;57.786;12.080;2023-09-19T05:53:39;6.27;;;1.80;;
13483;SDS011;6814;57.786;12.080;2023-09-19T05:56:08;3.97;;;1.50;;
13483;SDS011;6814;57.786;12.080;2023-09-19T05:58:36;4.83;;;1.90;;
13483;SDS011;6814;57.786;12.080;2023-09-19T06:01:03;5.57;;;1.73;;
13483;SDS011;6814;57.786;12.080;2023-09-19T06:03:31;9.37;;;1.80;;
13483;SDS011;6814;57.786;12.080;2023-09-19T06:05:57;4.50;;;1.40;;
13483;SDS011;6814;57.786;12.080;2023-09-19T06:08:24;5.00;;;1.10;;
13483;SDS011;6814;57.786;12.080;2023-09-19T06:10:51;6.07;;;1.60;;
13483;SDS011;6814;57.786;12.080;2023-09-19T06:13:17;5.47;;;1.60;;
13483;SDS011;6814;57.786;12.080;2023-09-19T06:15:44;5.17;;;1.93;;
13483;SDS011;6814;57.786;12.080;2023-09-19T06:18:11;4.47;;;1.60;;
13483;SDS011;6814;57.786;12.080;2023-09-19T06:20:45;7.70;;;2.47;;
13483;SDS011;6814;57.786;12.080;2023-09-19T06:23:12;4.63;;;1.60;;
13483;SDS011;6814;57.786;12.080;2023-09-19T06:25:38;7.90;;;1.93;;
13483;SDS011;6814;57.786;12.080;2023-09-19T06:28:05;4.73;;;1.50;;
13483;SDS011;6814;57.786;12.080;2023-09-19T06:30:37;6.47;;;2.10;;
13483;SDS011;6814;57.786;12.080;2023-09-19T06:33:05;4.43;;;1.40;;
13483;SDS011;6814;57.786;12.080;2023-09-19T06:35:32;3.20;;;1.10;;
13483;SDS011;6814;57.786;12.080;2023-09-19T06:38:01;3.57;;;1.23;;
13483;SDS011;6814;57.786;12.080;2023-09-19T06:40:28;2.20;;;1.27;;
13483;SDS011;6814;57.786;12.080;2023-09-19T06:42:56;5.70;;;1.40;;
13483;SDS011;6814;57.786;12.080;2023-09-19T06:45:23;5.90;;;1.33;;
13483;SDS011;6814;57.786;12.080;2023-09-19T06:47:52;2.90;;;1.00;;
13483;SDS011;6814;57.786;12.080;2023-09-19T06:50:22;4.20;;;1.17;;
13483;SDS011;6814;57.786;12.080;2023-09-19T06:52:49;5.40;;;1.67;;
13483;SDS011;6814;57.786;12.080;2023-09-19T06:55:18;3.20;;;1.23;;
13483;SDS011;6814;57.786;12.080;2023-09-19T06:57:45;6.87;;;1.30;;
13483;SDS011;6814;57.786;12.080;2023-09-19T07:00:12;6.90;;;1.77;;
13483;SDS011;6814;57.786;12.080;2023-09-19T07:02:43;6.70;;;1.57;;
13483;SDS011;6814;57.786;12.080;2023-09-19T07:05:15;5.97;;;1.60;;
13483;SDS011;6814;57.786;12.080;2023-09-19T07:07:43;6.53;;;1.63;;
13483;SDS011;6814;57.786;12.080;2023-09-19T07:10:10;6.00;;;1.53;;
13483;SDS011;6814;57.786;12.080;2023-09-19T07:12:39;7.60;;;1.80;;
13483;SDS011;6814;57.786;12.080;2023-09-19T07:15:07;3.37;;;1.23;;
13483;SDS011;6814;57.786;12.080;2023-09-19T07:17:34;9.07;;;1.70;;
13483;SDS011;6814;57.786;12.080;2023-09-19T07:20:01;5.57;;;1.77;;
13483;SDS011;6814;57.786;12.080;2023-09-19T07:22:33;4.07;;;1.50;;
13483;SDS011;6814;57.786;12.080;2023-09-19T07:25:00;6.13;;;1.90;;
13483;SDS011;6814;57.786;12.080;2023-09-19T07:27:26;7.53;;;2.00;;
13483;SDS011;6814;57.786;12.080;2023-09-19T07:29:54;6.50;;;1.80;;
13483;SDS011;6814;57.786;12.080;2023-09-19T07:32:20;7.63;;;2.80;;
13483;SDS011;6814;57.786;12.080;2023-09-19T07:34:46;6.07;;;1.77;;
13483;SDS011;6814;57.786;12.080;2023-09-19T07:37:13;8.93;;;2.00;;
13483;SDS011;6814;57.786;12.080;2023-09-19T07:39:40;6.73;;;2.40;;
13483;SDS011;6814;57.786;12.080;2023-09-19T07:42:07;6.33;;;1.90;;
13483;SDS011;6814;57.786;12.080;2023-09-19T07:44:34;9.20;;;2.63;;
13483;SDS011;6814;57.786;12.080;2023-09-19T07:47:02;6.37;;;1.83;;
13483;SDS011;6814;57.786;12.080;2023-09-19T07:49:29;8.77;;;2.20;;
13483;SDS011;6814;57.786;12.080;2023-09-19T07:51:55;5.50;;;1.90;;
13483;SDS011;6814;57.786;12.080;2023-09-19T07:54:22;6.73;;;2.03;;
13483;SDS011;6814;57.786;12.080;2023-09-19T07:56:48;5.60;;;1.87;;
13483;SDS011;6814;57.786;12.080;2023-09-19T07:59:15;5.40;;;1.63;;
13483;SDS011;6814;57.786;12.080;2023-09-19T08:01:41;5.37;;;1.77;;
13483;SDS011;6814;57.786;12.080;2023-09-19T08:04:10;6.17;;;1.70;;
13483;SDS011;6814;57.786;12.080;2023-09-19T08:06:37;6.07;;;1.97;;
13483;SDS011;6814;57.786;12.080;2023-09-19T08:09:04;6.33;;;2.10;;
13483;SDS011;6814;57.786;12.080;2023-09-19T08:11:33;6.90;;;1.90;;
13483;SDS011;6814;57.786;12.080;2023-09-19T08:13:59;6.33;;;1.87;;
13483;SDS011;6814;57.786;12.080;2023-09-19T08:16:26;5.73;;;2.13;;
13483;SDS011;6814;57.786;12.080;2023-09-19T08:18:52;5.40;;;2.20;;
13483;SDS011;6814;57.786;12.080;2023-09-19T08:21:21;7.67;;;2.30;;
13483;SDS011;6814;57.786;12.080;2023-09-19T08:23:49;4.90;;;1.87;;
13483;SDS011;6814;57.786;12.080;2023-09-19T08:26:15;9.07;;;2.03;;
13483;SDS011;6814;57.786;12.080;2023-09-19T08:28:42;11.73;;;2.53;;
13483;SDS011;6814;57.786;12.080;2023-09-19T08:31:08;9.80;;;2.50;;
13483;SDS011;6814;57.786;12.080;2023-09-19T08:33:35;7.43;;;2.77;;
13483;SDS011;6814;57.786;12.080;2023-09-19T08:36:02;8.90;;;2.40;;
13483;SDS011;6814;57.786;12.080;2023-09-19T08:38:30;9.50;;;2.83;;
13483;SDS011;6814;57.786;12.080;2023-09-19T08:40:58;7.23;;;2.30;;
13483;SDS011;6814;57.786;12.080;2023-09-19T08:43:25;5.73;;;2.20;;
13483;SDS011;6814;57.786;12.080;2023-09-19T08:45:53;9.43;;;2.37;;
13483;SDS011;6814;57.786;12.080;2023-09-19T08:48:23;11.17;;;2.37;;
13483;SDS011;6814;57.786;12.080;2023-09-19T08:50:51;5.93;;;2.20;;
13483;SDS011;6814;57.786;12.080;2023-09-19T08:53:25;7.40;;;2.20;;
13483;SDS011;6814;57.786;12.080;2023-09-19T08:55:56;10.33;;;2.40;;
13483;SDS011;6814;57.786;12.080;2023-09-19T08:58:24;6.90;;;2.43;;
13483;SDS011;6814;57.786;12.080;2023-09-19T09:00:53;8.67;;;2.53;;
13483;SDS011;6814;57.786;12.080;2023-09-19T09:03:20;5.60;;;2.33;;
13483;SDS011;6814;57.786;12.080;2023-09-19T09:05:47;6.93;;;1.93;;
13483;SDS011;6814;57.786;12.080;2023-09-19T09:08:16;8.27;;;2.20;;
13483;SDS011;6814;57.786;12.080;2023-09-19T09:10:45;6.17;;;2.50;;
13483;SDS011;6814;57.786;12.080;2023-09-19T09:13:13;6.40;;;1.90;;
13483;SDS011;6814;57.786;12.080;2023-09-19T09:15:40;9.40;;;2.27;;
13483;SDS011;6814;57.786;12.080;2023-09-19T09:18:07;5.23;;;2.00;;
13483;SDS011;6814;57.786;12.080;2023-09-19T09:20:34;6.63;;;2.10;;
13483;SDS011;6814;57.786;12.080;2023-09-19T09:23:01;4.00;;;1.70;;
13483;SDS011;6814;57.786;12.080;2023-09-19T09:25:47;6.40;;;1.50;;
13483;SDS011;6814;57.786;12.080;2023-09-19T09:28:20;3.93;;;1.37;;
13483;SDS011;6814;57.786;12.080;2023-09-19T09:30:47;4.47;;;1.20;;
13483;SDS011;6814;57.786;12.080;2023-09-19T09:33:14;7.40;;;1.60;;
13483;SDS011;6814;57.786;12.080;2023-09-19T09:35:48;2.93;;;1.20;;
13483;SDS011;6814;57.786;12.080;2023-09-19T09:38:17;4.00;;;1.30;;
13483;SDS011;6814;57.786;12.080;2023-09-19T09:40:47;4.77;;;1.50;;
13483;SDS011;6814;57.786;12.080;2023-09-19T09:43:28;6.70;;;2.03;;
13483;SDS011;6814;57.786;12.080;2023-09-19T09:46:08;3.93;;;1.10;;
13483;SDS011;6814;57.786;12.080;2023-09-19T09:48:56;4.73;;;1.50;;
13483;SDS011;6814;57.786;12.080;2023-09-19T09:51:41;6.67;;;1.50;;
13483;SDS011;6814;57.786;12.080;2023-09-19T09:54:11;4.87;;;1.27;;
13483;SDS011;6814;57.786;12.080;2023-09-19T09:56:52;3.40;;;1.50;;
13483;SDS011;6814;57.786;12.080;2023-09-19T09:59:20;3.50;;;1.50;;
13483;SDS011;6814;57.786;12.080;2023-09-19T10:01:49;5.73;;;1.50;;
13483;SDS011;6814;57.786;12.080;2023-09-19T10:04:26;5.57;;;1.40;;
13483;SDS011;6814;57.786;12.080;2023-09-19T10:06:53;2.93;;;1.07;;
13483;SDS011;6814;57.786;12.080;2023-09-19T10:09:20;5.40;;;1.27;;
13483;SDS011;6814;57.786;12.080;2023-09-19T10:12:00;2.13;;;0.83;;
13483;SDS011;6814;57.786;12.080;2023-09-19T10:14:29;6.17;;;1.30;;
13483;SDS011;6814;57.786;12.080;2023-09-19T10:16:56;4.07;;;1.20;;
13483;SDS011;6814;57.786;12.080;2023-09-19T10:19:30;3.90;;;1.13;;
13483;SDS011;6814;57.786;12.080;2023-09-19T10:21:59;4.87;;;1.20;;
13483;SDS011;6814;57.786;12.080;2023-09-19T10:24:27;2.60;;;1.20;;
13483;SDS011;6814;57.786;12.080;2023-09-19T10:26:56;4.50;;;1.40;;
13483;SDS011;6814;57.786;12.080;2023-09-19T10:29:22;3.33;;;0.93;;
13483;SDS011;6814;57.786;12.080;2023-09-19T10:31:52;3.07;;;1.27;;
13483;SDS011;6814;57.786;12.080;2023-09-19T10:34:19;5.73;;;1.00;;
13483;SDS011;6814;57.786;12.080;2023-09-19T10:36:47;1.80;;;0.80;;
13483;SDS011;6814;57.786;12.080;2023-09-19T10:39:15;2.30;;;0.90;;
13483;SDS011;6814;57.786;12.080;2023-09-19T10:41:47;8.20;;;1.20;;
13483;SDS011;6814;57.786;12.080;2023-09-19T10:44:18;5.03;;;1.83;;
13483;SDS011;6814;57.786;12.080;2023-09-19T10:46:46;4.00;;;1.00;;
13483;SDS011;6814;57.786;12.080;2023-09-19T10:49:14;4.63;;;1.00;;
13483;SDS011;6814;57.786;12.080;2023-09-19T10:51:41;1.60;;;0.53;;
13483;SDS011;6814;57.786;12.080;2023-09-19T10:54:12;3.67;;;1.30;;
13483;SDS011;6814;57.786;12.080;2023-09-19T10:56:44;5.07;;;1.27;;
13483;SDS011;6814;57.786;12.080;2023-09-19T10:59:14;7.23;;;1.40;;
13483;SDS011;6814;57.786;12.080;2023-09-19T11:01:43;4.57;;;1.60;;
13483;SDS011;6814;57.786;12.080;2023-09-19T11:04:23;4.87;;;1.53;;
13483;SDS011;6814;57.786;12.080;2023-09-19T11:06:59;3.67;;;1.07;;
13483;SDS011;6814;57.786;12.080;2023-09-19T11:09:25;4.00;;;1.03;;
13483;SDS011;6814;57.786;12.080;2023-09-19T11:12:09;5.40;;;0.97;;
13483;SDS011;6814;57.786;12.080;2023-09-19T11:14:40;3.40;;;1.00;;
13483;SDS011;6814;57.786;12.080;2023-09-19T11:20:17;3.83;;;1.20;;
13483;SDS011;6814;57.786;12.080;2023-09-19T11:25:43;8.20;;;1.63;;
13483;SDS011;6814;57.786;12.080;2023-09-19T11:28:32;4.97;;;1.40;;
13483;SDS011;6814;57.786;12.080;2023-09-19T11:30:59;6.13;;;1.10;;
13483;SDS011;6814;57.786;12.080;2023-09-19T11:33:28;5.00;;;1.27;;
13483;SDS011;6814;57.786;12.080;2023-09-19T11:36:06;2.73;;;0.97;;
13483;SDS011;6814;57.786;12.080;2023-09-19T11:41:39;5.93;;;1.07;;
13483;SDS011;6814;57.786;12.080;2023-09-19T11:46:52;4.40;;;1.60;;
13483;SDS011;6814;57.786;12.080;2023-09-19T11:49:19;4.17;;;1.10;;
13483;SDS011;6814;57.786;12.080;2023-09-19T11:51:50;4.53;;;1.33;;
13483;SDS011;6814;57.786;12.080;2023-09-19T11:54:17;6.03;;;1.43;;
13483;SDS011;6814;57.786;12.080;2023-09-19T11:56:48;3.03;;;1.10;;
13483;SDS011;6814;57.786;12.080;2023-09-19T11:59:19;2.27;;;1.00;;
13483;SDS011;6814;57.786;12.080;2023-09-19T12:01:50;4.20;;;1.10;;
13483;SDS011;6814;57.786;12.080;2023-09-19T12:04:31;3.07;;;1.10;;
13483;SDS011;6814;57.786;12.080;2023-09-19T12:07:01;3.83;;;1.17;;
13483;SDS011;6814;57.786;12.080;2023-09-19T12:09:27;5.93;;;1.70;;
13483;SDS011;6814;57.786;12.080;2023-09-19T12:11:54;4.93;;;1.30;;
13483;SDS011;6814;57.786;12.080;2023-09-19T12:14:21;3.03;;;1.20;;
13483;SDS011;6814;57.786;12.080;2023-09-19T12:16:50;2.67;;;1.20;;
13483;SDS011;6814;57.786;12.080;2023-09-19T12:19:20;4.10;;;1.10;;
13483;SDS011;6814;57.786;12.080;2023-09-19T12:21:53;6.83;;;1.53;;
13483;SDS011;6814;57.786;12.080;2023-09-19T12:24:21;4.70;;;1.37;;
13483;SDS011;6814;57.786;12.080;2023-09-19T12:26:48;5.27;;;1.10;;
13483;SDS011;6814;57.786;12.080;2023-09-19T12:29:18;4.73;;;1.30;;
13483;SDS011;6814;57.786;12.080;2023-09-19T12:31:51;4.27;;;1.23;;
13483;SDS011;6814;57.786;12.080;2023-09-19T12:34:21;2.33;;;0.90;;
13483;SDS011;6814;57.786;12.080;2023-09-19T12:36:48;3.43;;;1.20;;
13483;SDS011;6814;57.786;12.080;2023-09-19T12:39:25;10.67;;;1.60;;
13483;SDS011;6814;57.786;12.080;2023-09-19T12:41:52;6.17;;;1.77;;
13483;SDS011;6814;57.786;12.080;2023-09-19T12:44:19;3.97;;;1.67;;
13483;SDS011;6814;57.786;12.080;2023-09-19T12:46:46;4.67;;;1.60;;
13483;SDS011;6814;57.786;12.080;2023-09-19T12:49:15;5.67;;;1.33;;
13483;SDS011;6814;57.786;12.080;2023-09-19T12:51:43;3.90;;;1.10;;
13483;SDS011;6814;57.786;12.080;2023-09-19T12:54:10;8.50;;;1.90;;
13483;SDS011;6814;57.786;12.080;2023-09-19T12:56:40;5.73;;;1.80;;
13483;SDS011;6814;57.786;12.080;2023-09-19T12:59:09;5.83;;;1.53;;
13483;SDS011;6814;57.786;12.080;2023-09-19T13:01:38;3.70;;;1.50;;
13483;SDS011;6814;57.786;12.080;2023-09-19T13:04:14;5.10;;;1.30;;
13483;SDS011;6814;57.786;12.080;2023-09-19T13:06:43;7.30;;;1.30;;
13483;SDS011;6814;57.786;12.080;2023-09-19T13:09:09;4.80;;;1.70;;
13483;SDS011;6814;57.786;12.080;2023-09-19T13:11:36;6.33;;;1.30;;
13483;SDS011;6814;57.786;12.080;2023-09-19T13:14:20;5.93;;;1.73;;
13483;SDS011;6814;57.786;12.080;2023-09-19T13:16:58;4.73;;;1.20;;
13483;SDS011;6814;57.786;12.080;2023-09-19T13:19:39;5.17;;;1.33;;
13483;SDS011;6814;57.786;12.080;2023-09-19T13:24:47;5.73;;;1.67;;
13483;SDS011;6814;57.786;12.080;2023-09-19T13:27:16;5.77;;;1.30;;
13483;SDS011;6814;57.786;12.080;2023-09-19T13:29:44;7.67;;;1.53;;
13483;SDS011;6814;57.786;12.080;2023-09-19T13:32:10;5.63;;;1.50;;
13483;SDS011;6814;57.786;12.080;2023-09-19T13:34:37;5.60;;;1.43;;
13483;SDS011;6814;57.786;12.080;2023-09-19T13:37:03;2.43;;;1.10;;
13483;SDS011;6814;57.786;12.080;2023-09-19T13:39:31;5.80;;;1.33;;
13483;SDS011;6814;57.786;12.080;2023-09-19T13:41:57;5.07;;;1.07;;
13483;SDS011;6814;57.786;12.080;2023-09-19T13:44:25;5.10;;;1.40;;
13483;SDS011;6814;57.786;12.080;2023-09-19T13:46:57;2.40;;;0.87;;
13483;SDS011;6814;57.786;12.080;2023-09-19T13:49:24;4.97;;;1.37;;
13483;SDS011;6814;57.786;12.080;2023-09-19T13:51:51;2.83;;;0.97;;
13483;SDS011;6814;57.786;12.080;2023-09-19T13:54:17;3.40;;;1.17;;
13483;SDS011;6814;57.786;12.080;2023-09-19T13:56:46;5.30;;;1.40;;
13483;SDS011;6814;57.786;12.080;2023-09-19T13:59:12;4.20;;;1.13;;
13483;SDS011;6814;57.786;12.080;2023-09-19T14:01:38;4.17;;;1.40;;
13483;SDS011;6814;57.786;12.080;2023-09-19T14:04:08;4.87;;;1.40;;
13483;SDS011;6814;57.786;12.080;2023-09-19T14:06:35;7.83;;;1.63;;
13483;SDS011;6814;57.786;12.080;2023-09-19T14:09:02;4.17;;;1.47;;
13483;SDS011;6814;57.786;12.080;2023-09-19T14:11:29;4.10;;;1.10;;
13483;SDS011;6814;57.786;12.080;2023-09-19T14:13:55;6.90;;;1.63;;
13483;SDS011;6814;57.786;12.080;2023-09-19T14:16:23;6.17;;;1.30;;
13483;SDS011;6814;57.786;12.080;2023-09-19T14:18:49;3.90;;;1.43;;
13483;SDS011;6814;57.786;12.080;2023-09-19T14:21:18;6.00;;;1.80;;
13483;SDS011;6814;57.786;12.080;2023-09-19T14:23:45;4.77;;;1.40;;
13483;SDS011;6814;57.786;12.080;2023-09-19T14:26:11;4.70;;;1.73;;
13483;SDS011;6814;57.786;12.080;2023-09-19T14:28:37;8.67;;;1.53;;
13483;SDS011;6814;57.786;12.080;2023-09-19T14:31:05;6.93;;;1.53;;
13483;SDS011;6814;57.786;12.080;2023-09-19T14:33:32;6.03;;;1.70;;
13483;SDS011;6814;57.786;12.080;2023-09-19T14:36:01;5.73;;;1.60;;
13483;SDS011;6814;57.786;12.080;2023-09-19T14:38:32;4.53;;;1.50;;
13483;SDS011;6814;57.786;12.080;2023-09-19T14:40:59;4.57;;;1.50;;
13483;SDS011;6814;57.786;12.080;2023-09-19T14:43:28;9.00;;;1.80;;
13483;SDS011;6814;57.786;12.080;2023-09-19T14:45:55;6.13;;;1.67;;
13483;SDS011;6814;57.786;12.080;2023-09-19T14:48:22;7.03;;;1.80;;
13483;SDS011;6814;57.786;12.080;2023-09-19T14:50:51;6.77;;;1.53;;
13483;SDS011;6814;57.786;12.080;2023-09-19T14:53:17;5.57;;;1.90;;
13483;SDS011;6814;57.786;12.080;2023-09-19T14:55:45;7.47;;;1.73;;
13483;SDS011;6814;57.786;12.080;2023-09-19T14:58:12;4.40;;;1.50;;
13483;SDS011;6814;57.786;12.080;2023-09-19T15:00:39;5.80;;;1.80;;
13483;SDS011;6814;57.786;12.080;2023-09-19T15:03:05;8.13;;;1.73;;
13483;SDS011;6814;57.786;12.080;2023-09-19T15:05:32;5.53;;;1.63;;